Time;durP1;ratioP1;P1;durP2;ratioP2;P2;SDS_P1;SDS_P2;PMS_P1;PMS_P2;Temp;Humidity;BMP_temperature;BMP_pressure;BME280_temperature;BME280_humidity;BME280_pressure;Samples;Min_cycle;Max_cycle;Signal;HPM_P1;HPM_P2
2022/09/03 00:00:37;;;;;;;3.92;1.02;;;21.40;54.10;;;;;;5067361;28;47485;-74
2022/09/03 00:03:10;;;;;;;1.75;0.80;;;21.50;52.60;;;;;;5067585;28;45088;-74
2022/09/03 00:05:40;;;;;;;1.05;0.80;;;21.50;52.80;;;;;;5064651;28;45432;-74
2022/09/03 00:08:14;;;;;;;1.30;0.90;;;21.40;53.40;;;;;;5067724;28;45180;-74
2022/09/03 00:10:51;;;;;;;2.08;0.80;;;21.40;53.30;;;;;;5067215;28;48048;-74
2022/09/03 00:13:23;;;;;;;4.05;0.70;;;21.40;54.00;;;;;;5067454;28;45249;-74
2022/09/03 00:15:52;;;;;;;0.82;0.70;;;21.40;53.20;;;;;;5067428;28;45262;-74
2022/09/03 00:18:21;;;;;;;1.17;0.88;;;21.30;53.20;;;;;;5067340;28;45464;-74
2022/09/03 00:20:53;;;;;;;1.45;0.70;;;21.30;54.60;;;;;;5066768;28;46403;-75
2022/09/03 00:23:24;;;;;;;1.95;0.90;;;21.40;52.70;;;;;;5067129;28;45281;-75
2022/09/03 00:25:57;;;;;;;2.03;1.02;;;21.40;52.70;;;;;;5067238;28;45305;-74
2022/09/03 00:28:28;;;;;;;2.15;0.77;;;21.30;54.80;;;;;;5064364;28;45229;-74
2022/09/03 00:31:06;;;;;;;2.50;1.17;;;21.40;53.10;;;;;;5067140;28;47585;-75
2022/09/03 00:33:34;;;;;;;2.50;0.70;;;21.30;53.30;;;;;;5068657;28;45571;-73
2022/09/03 00:36:10;;;;;;;1.42;0.80;;;21.40;54.40;;;;;;5067719;28;45339;-74
2022/09/03 00:38:39;;;;;;;1.02;0.70;;;21.40;53.70;;;;;;5067043;28;45599;-74
2022/09/03 00:41:11;;;;;;;4.30;0.90;;;21.30;53.20;;;;;;5066612;28;47247;-74
2022/09/03 00:43:52;;;;;;;4.18;0.70;;;21.30;52.80;;;;;;5067189;28;45198;-74
2022/09/03 00:46:26;;;;;;;1.35;0.70;;;21.40;52.80;;;;;;5067063;28;45240;-74
2022/09/03 00:49:17;;;;;;;0.60;0.57;;;21.30;52.80;;;;;;5064054;28;45138;-74
2022/09/03 00:51:51;;;;;;;1.10;0.80;;;21.30;55.90;;;;;;5067057;28;47478;-74
2022/09/03 00:54:29;;;;;;;1.50;0.70;;;21.40;53.10;;;;;;5063728;28;45222;-74
2022/09/03 00:57:06;;;;;;;0.77;0.70;;;21.40;51.90;;;;;;5066663;28;45317;-74
2022/09/03 00:59:41;;;;;;;1.20;0.70;;;21.30;53.20;;;;;;5066695;28;45064;-74
2022/09/03 01:02:15;;;;;;;1.23;0.80;;;21.20;55.40;;;;;;5066374;28;47043;-74
2022/09/03 01:04:55;;;;;;;1.17;0.70;;;21.20;54.10;;;;;;5066569;28;45091;-74
2022/09/03 01:07:34;;;;;;;2.17;0.95;;;21.20;53.30;;;;;;5066873;28;45338;-75
2022/09/03 01:10:13;;;;;;;0.90;0.70;;;21.20;52.80;;;;;;5063724;28;45231;-74
2022/09/03 01:12:50;;;;;;;2.83;0.60;;;21.20;53.30;;;;;;5066677;28;47172;-74
2022/09/03 01:15:23;;;;;;;0.77;0.70;;;21.20;53.60;;;;;;5067093;28;45446;-74
2022/09/03 01:18:07;;;;;;;1.20;0.90;;;21.20;54.70;;;;;;5066776;28;45139;-74
2022/09/03 01:20:55;;;;;;;2.40;0.68;;;21.20;53.60;;;;;;5066901;28;45269;-74
2022/09/03 01:23:53;;;;;;;2.15;0.70;;;21.10;53.30;;;;;;5065974;28;46820;-74
2022/09/03 01:26:30;;;;;;;1.15;0.80;;;21.10;53.80;;;;;;5068142;28;45282;-72
2022/09/03 01:29:09;;;;;;;1.27;0.70;;;21.00;54.50;;;;;;5066546;28;45284;-74
2022/09/03 01:31:44;;;;;;;5.32;1.00;;;21.10;53.00;;;;;;5066438;28;45221;-73
2022/09/03 01:34:21;;;;;;;4.43;0.90;;;21.00;53.80;;;;;;5062943;28;46130;-73
2022/09/03 01:36:57;;;;;;;0.98;0.70;;;21.10;54.60;;;;;;5066184;28;46334;-74
2022/09/03 01:39:37;;;;;;;0.60;0.57;;;21.10;53.50;;;;;;5066273;28;45340;-74
2022/09/03 01:42:15;;;;;;;0.77;0.60;;;21.00;54.30;;;;;;5066284;28;45077;-74
2022/09/03 01:44:56;;;;;;;0.90;0.70;;;21.00;54.20;;;;;;5065630;28;47549;-74
2022/09/03 01:47:32;;;;;;;2.70;0.70;;;21.10;54.40;;;;;;5066096;28;45291;-74
2022/09/03 01:50:05;;;;;;;1.77;0.70;;;20.90;53.80;;;;;;5066024;28;45154;-74
2022/09/03 01:52:41;;;;;;;0.93;0.70;;;21.00;55.20;;;;;;5066292;28;45172;-74
2022/09/03 01:55:24;;;;;;;1.40;0.70;;;21.00;53.40;;;;;;5066022;28;47363;-74
2022/09/03 01:57:57;;;;;;;2.33;0.77;;;21.00;54.30;;;;;;5065335;28;45361;-74
2022/09/03 02:00:26;;;;;;;3.63;0.70;;;20.90;55.10;;;;;;5066036;28;45394;-74
2022/09/03 02:02:53;;;;;;;0.73;0.60;;;20.90;54.20;;;;;;5065458;28;45426;-74
2022/09/03 02:05:23;;;;;;;4.18;0.80;;;20.80;54.90;;;;;;5065291;28;47960;-74
2022/09/03 02:07:54;;;;;;;0.80;0.60;;;20.80;54.30;;;;;;5065625;28;45248;-74
2022/09/03 02:10:26;;;;;;;0.95;0.60;;;20.80;55.00;;;;;;5065937;28;45218;-74
2022/09/03 02:12:56;;;;;;;3.50;0.90;;;20.80;55.50;;;;;;5068188;28;45338;-74
2022/09/03 02:15:27;;;;;;;0.60;0.60;;;21.00;55.10;;;;;;5068991;28;46548;-74
2022/09/03 02:17:58;;;;;;;3.15;0.80;;;21.10;56.20;;;;;;5071334;28;45179;-74
2022/09/03 02:20:28;;;;;;;0.70;0.65;;;21.10;54.60;;;;;;5069344;28;45306;-74
2022/09/03 02:22:57;;;;;;;0.70;0.60;;;21.20;55.40;;;;;;5069106;28;45100;-74
2022/09/03 02:25:29;;;;;;;1.05;0.70;;;21.20;54.60;;;;;;5068773;28;46556;-74
2022/09/03 02:27:56;;;;;;;1.20;0.68;;;21.10;55.30;;;;;;5069224;28;45176;-74
2022/09/03 02:30:23;;;;;;;0.80;0.63;;;21.20;54.00;;;;;;5069114;28;45247;-74
2022/09/03 02:32:51;;;;;;;1.67;0.65;;;21.20;55.40;;;;;;5069145;28;45591;-74
2022/09/03 02:35:18;;;;;;;2.35;0.70;;;21.20;54.30;;;;;;5068878;28;46730;-75
2022/09/03 02:37:45;;;;;;;2.05;0.70;;;21.20;54.00;;;;;;5069015;28;45269;-74
2022/09/03 02:40:12;;;;;;;3.05;0.88;;;21.10;54.00;;;;;;5069065;28;45228;-74
2022/09/03 02:42:39;;;;;;;1.02;0.60;;;21.20;54.00;;;;;;5068823;28;45444;-74
2022/09/03 02:45:17;;;;;;;1.65;0.88;;;21.20;54.60;;;;;;5068703;28;45571;-74
2022/09/03 02:47:47;;;;;;;1.10;0.70;;;21.10;55.30;;;;;;5068924;28;45259;-74
2022/09/03 02:50:15;;;;;;;0.95;0.65;;;21.10;55.10;;;;;;5069063;28;45198;-74
2022/09/03 02:52:42;;;;;;;2.17;0.60;;;21.10;53.90;;;;;;5068826;28;45550;-75
2022/09/03 02:55:09;;;;;;;1.58;0.70;;;21.10;54.30;;;;;;5068711;28;45296;-74
2022/09/03 02:57:36;;;;;;;0.75;0.60;;;21.10;54.40;;;;;;5068278;28;45373;-74
2022/09/03 03:00:04;;;;;;;1.25;0.70;;;21.10;54.40;;;;;;5068904;28;45312;-74
2022/09/03 03:02:30;;;;;;;0.90;0.63;;;21.10;54.50;;;;;;5068556;28;45234;-75
2022/09/03 03:04:57;;;;;;;1.85;0.82;;;21.10;54.90;;;;;;5068472;28;45309;-74
2022/09/03 03:07:25;;;;;;;0.73;0.43;;;21.10;54.10;;;;;;5068646;28;45226;-74
2022/09/03 03:09:52;;;;;;;2.85;1.00;;;21.10;54.40;;;;;;5070052;28;45175;-74
2022/09/03 03:12:19;;;;;;;1.80;0.60;;;21.10;54.50;;;;;;5068692;28;45474;-74
2022/09/03 03:14:46;;;;;;;2.40;0.60;;;21.10;54.40;;;;;;5068451;28;46366;-74
2022/09/03 03:17:13;;;;;;;1.13;0.50;;;21.20;54.70;;;;;;5068215;28;45171;-74
2022/09/03 03:19:40;;;;;;;3.08;0.57;;;21.10;54.30;;;;;;5068576;28;45214;-74
2022/09/03 03:22:06;;;;;;;0.70;0.68;;;21.10;54.20;;;;;;5068232;28;45213;-75
2022/09/03 03:24:35;;;;;;;1.60;0.90;;;21.10;56.00;;;;;;5068033;28;47761;-74
2022/09/03 03:27:06;;;;;;;0.90;0.70;;;21.10;55.30;;;;;;5067931;28;45322;-74
2022/09/03 03:29:32;;;;;;;1.95;0.88;;;21.10;54.30;;;;;;5068417;28;45334;-74
2022/09/03 03:31:59;;;;;;;1.77;0.70;;;21.00;53.60;;;;;;5068312;28;45367;-74
2022/09/03 03:34:26;;;;;;;5.53;0.65;;;20.90;55.10;;;;;;5067879;28;46600;-74
2022/09/03 03:36:53;;;;;;;0.65;0.60;;;21.00;54.20;;;;;;5068165;28;45378;-74
2022/09/03 03:39:19;;;;;;;1.73;0.77;;;21.10;55.30;;;;;;5067769;28;45297;-74
2022/09/03 03:41:48;;;;;;;1.45;0.57;;;21.10;53.90;;;;;;5068102;28;45527;-74
2022/09/03 03:44:16;;;;;;;0.47;0.47;;;21.10;55.30;;;;;;5067657;28;46457;-75
2022/09/03 03:46:43;;;;;;;0.82;0.60;;;21.10;54.20;;;;;;5067871;28;45667;-74
2022/09/03 03:49:10;;;;;;;0.70;0.50;;;21.20;55.40;;;;;;5067880;28;45120;-74
2022/09/03 03:51:38;;;;;;;0.98;0.70;;;21.10;53.90;;;;;;5067873;28;45574;-75
2022/09/03 03:54:05;;;;;;;0.73;0.38;;;21.00;54.80;;;;;;5067470;28;48299;-74
2022/09/03 03:56:33;;;;;;;0.77;0.60;;;21.00;55.20;;;;;;5067519;28;45691;-74
2022/09/03 03:59:01;;;;;;;1.27;0.70;;;21.00;54.30;;;;;;5067576;28;45372;-74
2022/09/03 04:01:28;;;;;;;0.60;0.60;;;20.90;55.10;;;;;;5069277;28;45259;-74
2022/09/03 04:03:56;;;;;;;4.15;0.70;;;20.90;55.10;;;;;;5067591;28;46307;-74
2022/09/03 04:06:23;;;;;;;1.10;0.60;;;21.00;56.90;;;;;;5067578;28;45257;-74
2022/09/03 04:08:50;;;;;;;0.77;0.60;;;21.00;55.20;;;;;;5067421;28;45176;-74
2022/09/03 04:11:19;;;;;;;2.55;0.93;;;20.90;55.10;;;;;;5067643;28;45265;-74
2022/09/03 04:13:47;;;;;;;1.30;0.70;;;21.00;55.90;;;;;;5067374;28;45328;-74
2022/09/03 04:16:18;;;;;;;1.35;0.65;;;20.90;55.10;;;;;;5067448;28;45269;-74
2022/09/03 04:18:45;;;;;;;1.02;0.70;;;20.80;55.00;;;;;;5064466;28;45191;-74
2022/09/03 04:21:14;;;;;;;0.77;0.65;;;20.80;55.00;;;;;;5067514;28;45274;-74
2022/09/03 04:23:44;;;;;;;0.73;0.50;;;20.80;56.20;;;;;;5066921;28;46314;-74
2022/09/03 04:26:12;;;;;;;1.08;0.70;;;20.80;55.90;;;;;;5067176;28;45177;-74
2022/09/03 04:28:40;;;;;;;1.98;0.70;;;20.70;55.10;;;;;;5067421;28;45164;-74
2022/09/03 04:31:09;;;;;;;3.08;0.50;;;20.70;54.90;;;;;;5067684;28;45188;-74
2022/09/03 04:33:37;;;;;;;1.33;0.63;;;20.70;55.00;;;;;;5066807;28;46370;-75
2022/09/03 04:36:06;;;;;;;0.82;0.50;;;20.70;54.90;;;;;;5066261;28;46417;-74
2022/09/03 04:38:34;;;;;;;2.10;0.50;;;20.70;56.10;;;;;;5066994;28;45404;-74
2022/09/03 04:41:01;;;;;;;0.77;0.50;;;20.70;55.40;;;;;;5066914;28;45268;-74
2022/09/03 04:43:28;;;;;;;1.10;0.70;;;20.80;55.80;;;;;;5066952;28;46195;-74
2022/09/03 04:45:59;;;;;;;0.57;0.57;;;20.70;55.50;;;;;;5066953;28;45281;-74
2022/09/03 04:48:26;;;;;;;1.25;0.93;;;20.70;54.90;;;;;;5067015;28;45271;-74
2022/09/03 04:50:54;;;;;;;0.93;0.43;;;20.70;56.10;;;;;;5066893;28;45439;-74
2022/09/03 04:53:22;;;;;;;2.95;0.70;;;20.70;55.80;;;;;;5068136;28;46495;-74
2022/09/03 04:55:49;;;;;;;0.77;0.60;;;20.70;55.90;;;;;;5066958;28;45358;-74
2022/09/03 04:58:16;;;;;;;1.48;0.60;;;20.70;57.10;;;;;;5066445;28;45182;-74
2022/09/03 05:00:43;;;;;;;2.35;0.68;;;20.80;56.00;;;;;;5066914;28;45535;-74
2022/09/03 05:03:10;;;;;;;1.45;1.05;;;20.80;55.00;;;;;;5066266;28;48406;-74
2022/09/03 05:05:36;;;;;;;1.75;0.70;;;20.80;56.00;;;;;;5066796;28;45170;-74
2022/09/03 05:08:06;;;;;;;2.63;0.57;;;20.80;55.00;;;;;;5066460;28;45257;-74
2022/09/03 05:10:33;;;;;;;0.50;0.50;;;20.70;55.60;;;;;;5066841;28;45147;-74
2022/09/03 05:13:00;;;;;;;0.52;0.52;;;20.70;55.30;;;;;;5066465;28;45235;-74
2022/09/03 05:15:27;;;;;;;0.50;0.50;;;20.70;55.40;;;;;;5066405;28;45144;-74
2022/09/03 05:17:58;;;;;;;2.60;0.75;;;20.80;58.10;;;;;;5066612;28;45312;-74
2022/09/03 05:20:25;;;;;;;2.72;0.50;;;20.90;57.00;;;;;;5066520;28;45554;-74
2022/09/03 05:22:53;;;;;;;1.58;0.60;;;21.00;55.20;;;;;;5065982;28;48251;-74
2022/09/03 05:25:21;;;;;;;2.63;0.65;;;21.00;56.00;;;;;;5066465;28;45278;-74
2022/09/03 05:27:48;;;;;;;2.40;0.60;;;21.00;56.20;;;;;;5066353;28;45309;-74
2022/09/03 05:30:15;;;;;;;1.27;0.40;;;21.10;55.30;;;;;;5066570;28;45487;-74
2022/09/03 05:32:42;;;;;;;2.85;0.60;;;21.10;55.30;;;;;;5066062;28;48293;-74
2022/09/03 05:35:10;;;;;;;0.98;0.60;;;21.00;55.20;;;;;;5066129;28;45202;-74
2022/09/03 05:37:37;;;;;;;0.57;0.50;;;20.90;55.10;;;;;;5066360;28;45218;-74
2022/09/03 05:40:05;;;;;;;1.60;0.68;;;21.00;55.50;;;;;;5066292;28;45416;-74
2022/09/03 05:42:37;;;;;;;0.50;0.50;;;20.90;53.80;;;;;;5066019;28;47308;-74
2022/09/03 05:45:08;;;;;;;2.40;0.93;;;20.60;57.10;;;;;;5067191;28;45226;-73
2022/09/03 05:47:35;;;;;;;1.50;0.60;;;20.70;56.20;;;;;;5065183;28;45327;-74
2022/09/03 05:50:02;;;;;;;0.95;0.60;;;20.70;55.50;;;;;;5066350;28;45391;-74
2022/09/03 05:52:29;;;;;;;1.52;0.90;;;20.80;55.40;;;;;;5065540;28;46726;-75
2022/09/03 05:54:55;;;;;;;0.60;0.47;;;20.80;55.20;;;;;;5066026;28;45164;-74
2022/09/03 05:57:23;;;;;;;2.00;0.63;;;20.70;55.90;;;;;;5065688;28;45372;-75
2022/09/03 05:59:52;;;;;;;0.45;0.40;;;20.80;55.80;;;;;;5065778;28;45579;-74
2022/09/03 06:02:20;;;;;;;1.92;0.77;;;20.70;56.00;;;;;;5065593;28;48036;-74
2022/09/03 06:04:47;;;;;;;1.30;0.60;;;20.70;55.90;;;;;;5065430;28;45339;-74
2022/09/03 06:07:14;;;;;;;1.08;0.70;;;20.80;55.60;;;;;;5066153;28;45515;-74
2022/09/03 06:09:40;;;;;;;1.23;0.50;;;20.80;55.00;;;;;;5065768;28;45436;-74
2022/09/03 06:12:08;;;;;;;1.58;0.63;;;20.80;56.90;;;;;;5065648;28;47383;-75
2022/09/03 06:14:34;;;;;;;0.47;0.47;;;20.90;55.10;;;;;;5065463;28;45230;-74
2022/09/03 06:17:02;;;;;;;3.72;0.60;;;20.90;55.10;;;;;;5065752;28;45124;-74
2022/09/03 06:19:29;;;;;;;0.40;0.40;;;21.00;56.00;;;;;;5065679;28;45543;-74
2022/09/03 06:21:56;;;;;;;1.15;0.50;;;20.90;55.90;;;;;;5065285;28;47932;-75
2022/09/03 06:24:25;;;;;;;0.85;0.50;;;21.00;55.30;;;;;;5065414;28;45297;-74
2022/09/03 06:26:52;;;;;;;1.20;0.60;;;21.00;55.90;;;;;;5065505;28;45383;-74
2022/09/03 06:29:19;;;;;;;1.42;0.73;;;20.90;55.90;;;;;;5065745;28;45105;-74
2022/09/03 06:31:47;;;;;;;1.13;0.77;;;20.90;56.20;;;;;;5065101;28;46382;-74
2022/09/03 06:34:17;;;;;;;2.13;0.90;;;21.00;55.50;;;;;;5065187;28;45856;-74
2022/09/03 06:36:44;;;;;;;1.85;0.60;;;21.00;55.20;;;;;;5067027;28;45129;-73
2022/09/03 06:39:11;;;;;;;1.20;0.60;;;21.10;55.40;;;;;;5065565;28;45422;-74
2022/09/03 06:41:38;;;;;;;1.08;0.40;;;21.10;55.30;;;;;;5065135;28;46618;-74
2022/09/03 06:44:10;;;;;;;0.45;0.45;;;21.10;55.30;;;;;;5065149;28;45237;-74
2022/09/03 06:46:41;;;;;;;0.63;0.50;;;21.10;55.30;;;;;;5065351;28;45272;-74
2022/09/03 06:49:08;;;;;;;1.52;0.63;;;21.10;56.30;;;;;;5065142;28;45602;-74
2022/09/03 06:51:37;;;;;;;0.68;0.52;;;21.10;55.30;;;;;;5065070;28;45325;-74
2022/09/03 06:54:06;;;;;;;0.73;0.60;;;21.20;56.50;;;;;;5065262;28;45265;-74
2022/09/03 06:56:33;;;;;;;0.75;0.50;;;21.30;55.50;;;;;;5065037;28;45307;-74
2022/09/03 06:59:05;;;;;;;1.52;0.60;;;21.30;57.20;;;;;;5067368;28;45592;-74
2022/09/03 07:01:33;;;;;;;0.93;0.60;;;21.50;55.70;;;;;;5068477;28;47495;-74
2022/09/03 07:04:02;;;;;;;1.08;0.50;;;21.40;55.60;;;;;;5068493;28;45127;-74
2022/09/03 07:06:31;;;;;;;1.02;0.55;;;21.30;57.10;;;;;;5068384;28;45213;-74
2022/09/03 07:08:59;;;;;;;1.50;0.70;;;21.50;55.70;;;;;;5068553;28;45198;-74
2022/09/03 07:11:29;;;;;;;2.33;0.60;;;21.50;55.70;;;;;;5068087;28;48200;-74
2022/09/03 07:13:58;;;;;;;1.23;0.60;;;21.40;55.60;;;;;;5068208;28;45530;-74
2022/09/03 07:16:27;;;;;;;0.80;0.55;;;21.30;55.50;;;;;;5068322;28;45229;-74
2022/09/03 07:18:54;;;;;;;1.10;0.85;;;21.00;53.80;;;;;;5068382;28;45545;-74
2022/09/03 07:21:23;;;;;;;2.15;0.68;;;21.00;58.10;;;;;;5068004;28;46455;-74
2022/09/03 07:23:51;;;;;;;1.00;0.70;;;21.10;55.30;;;;;;5068098;28;45274;-74
2022/09/03 07:26:21;;;;;;;2.83;0.60;;;21.30;56.90;;;;;;5068459;28;45430;-74
2022/09/03 07:28:48;;;;;;;1.35;0.60;;;21.50;55.70;;;;;;5069842;28;45453;-73
2022/09/03 07:31:18;;;;;;;2.50;0.70;;;21.50;55.70;;;;;;5068360;28;45558;-74
2022/09/03 07:33:46;;;;;;;0.70;0.60;;;21.60;55.20;;;;;;5067906;28;45368;-74
2022/09/03 07:36:15;;;;;;;1.55;0.60;;;21.40;55.60;;;;;;5068247;28;45353;-74
2022/09/03 07:38:43;;;;;;;1.15;0.60;;;21.50;55.70;;;;;;5068071;28;45165;-74
2022/09/03 07:41:11;;;;;;;2.30;0.70;;;21.50;56.90;;;;;;5067968;28;46588;-74
2022/09/03 07:43:42;;;;;;;3.22;0.70;;;21.60;55.80;;;;;;5067809;28;45247;-74
2022/09/03 07:46:11;;;;;;;1.45;0.70;;;21.70;55.90;;;;;;5067888;28;45301;-74
2022/09/03 07:48:38;;;;;;;1.20;0.50;;;21.70;55.90;;;;;;5068052;28;45103;-74
2022/09/03 07:51:06;;;;;;;0.70;0.63;;;21.70;55.90;;;;;;5067677;28;45293;-74
2022/09/03 07:53:33;;;;;;;1.38;0.60;;;21.80;54.50;;;;;;5067789;28;45240;-74
2022/09/03 07:56:05;;;;;;;3.05;0.70;;;21.70;56.40;;;;;;5067877;28;45256;-74
2022/09/03 07:58:33;;;;;;;1.33;0.75;;;21.70;54.60;;;;;;5067462;28;45459;-74
2022/09/03 08:01:04;;;;;;;0.93;0.60;;;21.70;55.50;;;;;;5067361;28;46605;-74
2022/09/03 08:03:31;;;;;;;3.08;0.70;;;21.70;55.30;;;;;;5067572;28;45473;-74
2022/09/03 08:06:01;;;;;;;0.90;0.50;;;21.80;55.10;;;;;;5067711;28;45235;-74
2022/09/03 08:08:29;;;;;;;1.20;0.55;;;21.80;56.00;;;;;;5068036;28;45317;-75
2022/09/03 08:10:57;;;;;;;0.47;0.45;;;21.90;56.10;;;;;;5066240;28;45664;-74
2022/09/03 08:13:24;;;;;;;5.15;0.70;;;21.90;56.00;;;;;;5067587;28;45145;-74
2022/09/03 08:15:54;;;;;;;1.42;0.80;;;22.00;54.80;;;;;;5067747;28;45214;-74
2022/09/03 08:18:22;;;;;;;0.82;0.70;;;21.90;55.20;;;;;;5067823;28;45215;-74
2022/09/03 08:20:49;;;;;;;0.60;0.60;;;21.90;56.10;;;;;;5068773;28;46443;-73
2022/09/03 08:23:16;;;;;;;0.75;0.57;;;22.00;55.70;;;;;;5067683;28;45352;-74
2022/09/03 08:25:43;;;;;;;0.60;0.60;;;22.10;55.50;;;;;;5067258;28;45314;-74
2022/09/03 08:28:10;;;;;;;1.13;0.68;;;22.20;55.70;;;;;;5067606;28;45432;-74
2022/09/03 08:30:36;;;;;;;0.95;0.50;;;22.10;55.20;;;;;;5067241;28;47241;-74
2022/09/03 08:33:05;;;;;;;3.40;0.70;;;22.10;56.10;;;;;;5067314;28;45312;-74
2022/09/03 08:35:33;;;;;;;0.50;0.50;;;22.20;56.00;;;;;;5067136;28;45290;-74
2022/09/03 08:38:04;;;;;;;5.05;0.60;;;22.20;56.40;;;;;;5067161;28;45483;-74
2022/09/03 08:40:34;;;;;;;3.90;0.70;;;22.20;54.80;;;;;;5067278;28;45335;-74
2022/09/03 08:43:16;;;;;;;0.60;0.60;;;22.20;55.10;;;;;;5066872;28;45332;-74
2022/09/03 08:45:43;;;;;;;0.50;0.30;;;22.10;60.40;;;;;;5066938;28;45163;-74
2022/09/03 08:48:15;;;;;;;5.40;1.17;;;22.20;56.40;;;;;;5066995;28;45468;-74
2022/09/03 08:50:46;;;;;;;0.50;0.50;;;22.30;56.50;;;;;;5066778;28;47964;-74
2022/09/03 08:53:19;;;;;;;0.70;0.60;;;22.30;55.50;;;;;;5066913;28;45210;-74
2022/09/03 08:55:51;;;;;;;0.65;0.55;;;22.30;56.50;;;;;;5066875;28;45123;-74
2022/09/03 08:58:20;;;;;;;0.55;0.55;;;22.30;56.40;;;;;;5066428;28;45384;-75
2022/09/03 09:00:50;;;;;;;0.70;0.60;;;22.30;55.80;;;;;;5066485;28;46704;-74
2022/09/03 09:03:34;;;;;;;1.30;0.77;;;22.20;56.20;;;;;;5066833;28;45224;-74
2022/09/03 09:06:12;;;;;;;2.40;0.70;;;22.40;56.60;;;;;;5066641;28;45196;-74
2022/09/03 09:08:45;;;;;;;3.97;0.80;;;22.50;57.00;;;;;;5067187;28;45232;-74
2022/09/03 09:11:20;;;;;;;0.70;0.60;;;22.50;59.20;;;;;;5066559;28;45212;-73
2022/09/03 09:13:55;;;;;;;4.32;0.85;;;22.50;56.70;;;;;;5068267;28;45228;-74
2022/09/03 09:16:29;;;;;;;3.83;0.77;;;22.50;56.70;;;;;;5066515;28;45234;-74
2022/09/03 09:19:06;;;;;;;0.50;0.50;;;22.50;56.70;;;;;;5066804;28;45397;-74
2022/09/03 09:21:45;;;;;;;1.30;0.70;;;22.50;57.00;;;;;;5066016;27;48278;-74
2022/09/03 09:24:22;;;;;;;2.33;0.70;;;22.50;56.70;;;;;;5066214;28;45088;-74
2022/09/03 09:26:49;;;;;;;1.00;0.65;;;22.40;56.50;;;;;;5066494;28;45273;-74
2022/09/03 09:29:16;;;;;;;1.55;0.85;;;22.40;57.90;;;;;;5066752;28;45202;-74
2022/09/03 09:31:44;;;;;;;1.02;0.50;;;22.50;57.60;;;;;;5066402;28;47698;-74
2022/09/03 09:34:11;;;;;;;0.50;0.40;;;22.50;57.70;;;;;;5066372;28;45405;-74
2022/09/03 09:36:48;;;;;;;0.93;0.63;;;22.50;57.50;;;;;;5066315;28;45188;-75
2022/09/03 09:39:15;;;;;;;1.00;0.90;;;22.50;57.30;;;;;;5066616;28;45283;-74
2022/09/03 09:41:42;;;;;;;3.17;0.68;;;22.50;63.30;;;;;;5066046;28;46632;-74
2022/09/03 09:44:20;;;;;;;1.40;0.60;;;22.40;58.90;;;;;;5065855;28;45158;-74
2022/09/03 09:46:47;;;;;;;0.95;0.50;;;22.50;58.90;;;;;;5066350;28;45107;-74
2022/09/03 09:49:30;;;;;;;8.25;0.90;;;22.50;58.10;;;;;;5066174;28;45281;-74
2022/09/03 09:52:03;;;;;;;0.63;0.45;;;22.50;58.90;;;;;;5066189;28;47254;-74
2022/09/03 09:54:30;;;;;;;1.48;0.73;;;22.50;58.70;;;;;;5066354;28;45163;-74
2022/09/03 09:57:02;;;;;;;2.72;0.80;;;22.60;57.70;;;;;;5066239;28;45117;-75
2022/09/03 10:00:01;;;;;;;4.68;0.60;;;22.60;57.70;;;;;;5066381;28;45420;-74
2022/09/03 10:02:28;;;;;;;0.85;0.70;;;22.60;58.20;;;;;;5065943;28;47515;-74
2022/09/03 10:05:01;;;;;;;0.77;0.77;;;22.60;57.80;;;;;;5067536;28;45279;-74
2022/09/03 10:07:31;;;;;;;2.38;0.90;;;22.60;60.00;;;;;;5063265;28;45114;-74
2022/09/03 10:10:00;;;;;;;1.42;0.80;;;22.50;58.80;;;;;;5066017;28;45329;-75
2022/09/03 10:12:33;;;;;;;2.08;0.90;;;22.60;59.80;;;;;;5065564;28;48885;-75
2022/09/03 10:15:11;;;;;;;1.27;0.68;;;22.60;58.70;;;;;;5066209;28;45150;-75
2022/09/03 10:17:47;;;;;;;2.13;0.80;;;22.50;59.80;;;;;;5066046;28;45135;-74
2022/09/03 10:20:29;;;;;;;1.35;0.60;;;22.60;59.20;;;;;;5065856;28;45317;-74
2022/09/03 10:23:01;;;;;;;1.25;0.85;;;22.60;62.30;;;;;;5065750;28;46605;-74
2022/09/03 10:25:37;;;;;;;1.63;0.88;;;22.60;60.30;;;;;;5065828;28;45166;-74
2022/09/03 10:28:06;;;;;;;0.82;0.80;;;22.60;58.80;;;;;;5066044;28;45183;-74
2022/09/03 10:30:46;;;;;;;6.32;0.90;;;22.60;58.90;;;;;;5065866;28;45589;-75
2022/09/03 10:33:19;;;;;;;2.20;0.70;;;22.70;60.50;;;;;;5067312;28;47780;-75
2022/09/03 10:35:52;;;;;;;2.88;0.60;;;22.70;58.80;;;;;;5069298;28;45197;-75
2022/09/03 10:38:29;;;;;;;1.52;0.73;;;22.70;58.90;;;;;;5069357;28;45232;-75
2022/09/03 10:41:07;;;;;;;1.60;0.85;;;22.70;59.10;;;;;;5069113;28;45226;-74
2022/09/03 10:43:53;;;;;;;1.83;0.70;;;22.70;64.10;;;;;;5068880;28;48522;-75
2022/09/03 10:46:26;;;;;;;1.73;0.70;;;22.70;59.60;;;;;;5068732;28;45634;-75
2022/09/03 10:49:15;;;;;;;1.98;0.93;;;22.70;60.20;;;;;;5069239;28;45247;-75
2022/09/03 10:51:46;;;;;;;1.10;0.80;;;22.80;59.00;;;;;;5069222;28;45149;-74
2022/09/03 10:54:31;;;;;;;2.15;0.80;;;22.80;58.70;;;;;;5068972;28;45379;-74
2022/09/03 10:57:07;;;;;;;1.63;0.93;;;22.80;59.10;;;;;;5070879;28;45592;-73
2022/09/03 10:59:45;;;;;;;2.03;0.93;;;22.80;59.00;;;;;;5069072;28;45270;-74
2022/09/03 11:02:33;;;;;;;1.40;0.80;;;22.80;58.90;;;;;;5069162;28;45238;-75
2022/09/03 11:05:03;;;;;;;0.70;0.70;;;22.90;59.00;;;;;;5065582;28;45436;-75
2022/09/03 11:07:38;;;;;;;3.03;1.00;;;22.80;59.30;;;;;;5068306;28;46197;-74
2022/09/03 11:10:18;;;;;;;2.33;1.08;;;22.80;63.50;;;;;;5068154;28;45392;-73
2022/09/03 11:12:48;;;;;;;1.00;0.90;;;22.60;62.40;;;;;;5067846;28;45552;-74
2022/09/03 11:15:24;;;;;;;1.75;1.10;;;22.60;63.00;;;;;;5067632;28;47968;-73
2022/09/03 11:17:55;;;;;;;3.78;1.25;;;22.60;61.70;;;;;;5067491;28;46598;-73
2022/09/03 11:20:24;;;;;;;1.40;1.30;;;22.60;65.00;;;;;;5067889;28;45312;-73
2022/09/03 11:22:57;;;;;;;1.48;1.00;;;22.50;64.00;;;;;;5068387;28;45210;-75
2022/09/03 11:25:32;;;;;;;1.52;0.93;;;22.60;61.70;;;;;;5068341;28;46473;-75
2022/09/03 11:28:10;;;;;;;1.38;0.90;;;22.70;61.20;;;;;;5068481;28;45207;-75
2022/09/03 11:30:48;;;;;;;1.40;0.93;;;22.70;61.10;;;;;;5068461;28;45141;-74
2022/09/03 11:33:21;;;;;;;1.95;0.80;;;22.80;60.70;;;;;;5068623;28;45574;-74
2022/09/03 11:35:56;;;;;;;2.15;0.80;;;22.90;60.60;;;;;;5067855;28;46508;-74
2022/09/03 11:38:27;;;;;;;1.08;0.70;;;22.90;60.70;;;;;;5068141;28;45159;-74
2022/09/03 11:41:11;;;;;;;1.73;1.00;;;22.90;60.60;;;;;;5068313;28;45396;-75
2022/09/03 11:43:39;;;;;;;0.82;0.75;;;22.90;60.40;;;;;;5067713;28;45183;-75
2022/09/03 11:46:28;;;;;;;4.53;1.00;;;22.90;60.50;;;;;;5066975;28;45504;-75
2022/09/03 11:49:08;;;;;;;4.05;1.20;;;22.90;60.70;;;;;;5069648;28;45218;-73
2022/09/03 11:51:37;;;;;;;2.75;0.90;;;22.90;60.60;;;;;;5068182;28;45240;-74
2022/09/03 11:54:06;;;;;;;1.30;0.90;;;22.90;60.80;;;;;;5068221;28;45153;-74
2022/09/03 11:56:34;;;;;;;1.15;0.70;;;22.90;61.20;;;;;;5067652;28;45235;-74
2022/09/03 11:59:07;;;;;;;1.20;1.10;;;22.90;61.70;;;;;;5067398;28;46285;-74
2022/09/03 12:01:36;;;;;;;1.73;1.00;;;22.90;61.60;;;;;;5067976;28;45237;-74
2022/09/03 12:04:06;;;;;;;1.50;1.20;;;22.90;61.80;;;;;;5067633;28;45494;-74
2022/09/03 12:06:49;;;;;;;1.38;1.00;;;22.90;62.00;;;;;;5067082;28;47931;-74
2022/09/03 12:09:38;;;;;;;3.53;0.90;;;22.90;62.10;;;;;;5067486;28;45399;-74
2022/09/03 12:12:18;;;;;;;0.73;0.73;;;22.90;61.80;;;;;;5067666;28;45244;-74
2022/09/03 12:14:56;;;;;;;1.55;0.70;;;23.00;61.20;;;;;;5067740;28;45214;-74
2022/09/03 12:17:30;;;;;;;2.47;1.10;;;23.00;61.60;;;;;;5067271;28;47347;-74
2022/09/03 12:20:00;;;;;;;2.30;1.00;;;23.00;62.80;;;;;;5067422;28;45223;-74
2022/09/03 12:22:30;;;;;;;0.88;0.85;;;23.00;61.50;;;;;;5067338;28;45080;-74
2022/09/03 12:25:09;;;;;;;3.33;1.10;;;22.90;62.40;;;;;;5066901;28;45584;-74
2022/09/03 12:27:35;;;;;;;1.23;0.85;;;22.90;62.80;;;;;;5067250;28;47299;-74
2022/09/03 12:30:05;;;;;;;1.05;0.95;;;22.90;62.40;;;;;;5066905;28;45251;-74
2022/09/03 12:32:35;;;;;;;1.08;0.85;;;22.90;62.60;;;;;;5067417;28;45342;-74
2022/09/03 12:35:13;;;;;;;1.17;0.93;;;22.90;62.30;;;;;;5067331;28;45459;-74
2022/09/03 12:37:42;;;;;;;1.33;0.90;;;23.00;62.10;;;;;;5067066;28;45469;-74
2022/09/03 12:40:18;;;;;;;2.92;0.88;;;23.00;62.60;;;;;;5067542;28;45237;-74
2022/09/03 12:42:44;;;;;;;0.63;0.63;;;23.00;62.20;;;;;;5067814;28;45219;-74
2022/09/03 12:45:14;;;;;;;1.63;1.02;;;23.00;62.20;;;;;;5066966;28;45253;-74
2022/09/03 12:47:42;;;;;;;3.03;0.95;;;23.00;62.70;;;;;;5066626;28;48186;-74
2022/09/03 12:50:12;;;;;;;0.98;0.70;;;23.00;62.50;;;;;;5066839;28;45254;-74
2022/09/03 12:52:42;;;;;;;1.15;1.05;;;23.00;62.10;;;;;;5066485;28;45235;-74
2022/09/03 12:55:21;;;;;;;0.68;0.60;;;23.00;63.30;;;;;;5066556;28;45375;-74
2022/09/03 12:57:51;;;;;;;4.97;0.98;;;23.00;61.90;;;;;;5065665;28;45289;-74
2022/09/03 13:00:19;;;;;;;1.75;0.77;;;23.00;62.10;;;;;;5066366;28;45258;-74
2022/09/03 13:02:51;;;;;;;0.75;0.75;;;23.00;62.00;;;;;;5066385;28;45247;-74
2022/09/03 13:05:24;;;;;;;1.33;0.75;;;23.00;61.90;;;;;;5066293;28;45586;-74
2022/09/03 13:07:54;;;;;;;0.90;0.70;;;23.10;61.90;;;;;;5066570;28;47282;-74